Time;durP1;ratioP1;P1;durP2;ratioP2;P2;SDS_P1;SDS_P2;PMS_P1;PMS_P2;Temp;Humidity;BMP_temperature;BMP_pressure;BME280_temperature;BME280_humidity;BME280_pressure;Samples;Min_cycle;Max_cycle;Signal;HPM_P1;HPM_P2
2022/06/10 00:00:42;;;;;;;23.32;10.45;;;;;;;13.99;78.98;94225.86;1774834;79;21004;-54
2022/06/10 00:03:14;;;;;;;16.77;7.75;;;;;;;13.96;79.31;94233.11;1774737;80;21148;-54
2022/06/10 00:05:44;;;;;;;18.48;8.28;;;;;;;13.99;78.82;94230.02;1771492;79;21254;-54
2022/06/10 00:08:13;;;;;;;16.75;9.20;;;;;;;14.00;78.41;94223.98;1741111;81;21040;-55
2022/06/10 00:10:45;;;;;;;19.73;12.23;;;;;;;14.00;78.01;94230.15;1741825;81;21043;-54
2022/06/10 00:13:14;;;;;;;19.82;10.00;;;;;;;13.98;78.75;94236.78;1771248;79;20945;-54
2022/06/10 00:15:42;;;;;;;14.80;9.25;;;;;;;13.96;78.74;94236.51;1741599;81;20968;-54
2022/06/10 00:18:11;;;;;;;15.28;9.05;;;;;;;13.93;78.55;94228.55;1741383;81;21257;-54
2022/06/10 00:20:39;;;;;;;18.15;10.13;;;;;;;13.92;78.14;94229.02;1771565;81;20976;-55
2022/06/10 00:23:08;;;;;;;14.40;8.00;;;;;;;13.87;78.26;94236.00;1771333;81;21710;-54
2022/06/10 00:25:36;;;;;;;15.50;10.13;;;;;;;13.87;78.28;94232.47;1771642;81;20944;-53
2022/06/10 00:28:05;;;;;;;26.87;11.70;;;;;;;13.83;78.53;94234.67;1771378;81;20985;-54
2022/06/10 00:30:33;;;;;;;21.48;11.30;;;;;;;13.78;79.15;94238.13;1771965;79;21135;-54
2022/06/10 00:33:03;;;;;;;17.35;9.65;;;;;;;13.71;79.31;94235.73;1771119;81;21441;-53
2022/06/10 00:35:31;;;;;;;24.23;10.88;;;;;;;13.63;79.69;94247.80;1771157;79;21097;-53
2022/06/10 00:37:59;;;;;;;21.05;11.00;;;;;;;13.56;80.00;94247.42;1771215;79;20972;-54
2022/06/10 00:40:32;;;;;;;12.47;8.88;;;;;;;13.52;80.26;94245.48;1772010;81;21050;-54
2022/06/10 00:43:00;;;;;;;18.07;9.13;;;;;;;13.50;80.15;94241.05;1741614;81;21139;-55
2022/06/10 00:45:59;;;;;;;13.93;9.75;;;;;;;13.47;80.17;94242.02;1771308;81;21035;-54
2022/06/10 00:48:40;;;;;;;12.43;8.45;;;;;;;13.46;80.28;94232.95;1771410;81;20996;-55
2022/06/10 00:51:29;;;;;;;15.08;7.80;;;;;;;13.47;79.93;94235.10;1771813;79;20996;-54
2022/06/10 00:54:24;;;;;;;14.25;8.85;;;;;;;13.44;79.70;94240.20;1771385;81;20991;-54
2022/06/10 00:57:12;;;;;;;16.97;10.25;;;;;;;13.41;79.85;94237.77;1771644;79;21787;-55
2022/06/10 00:59:51;;;;;;;19.02;10.28;;;;;;;13.40;80.39;94241.77;1771106;81;21050;-54
2022/06/10 01:02:23;;;;;;;10.68;8.85;;;;;;;13.40;80.68;94241.77;1771298;81;20996;-54
2022/06/10 01:04:51;;;;;;;12.55;8.75;;;;;;;13.36;80.16;94243.97;1779548;80;21042;-53
2022/06/10 01:07:22;;;;;;;17.62;8.28;;;;;;;13.30;80.24;94241.71;1764669;80;21169;-55
2022/06/10 01:09:50;;;;;;;18.95;8.68;;;;;;;13.30;80.41;94236.19;1788875;80;21233;-54
2022/06/10 01:12:43;;;;;;;12.05;7.47;;;;;;;13.29;80.94;94239.44;1764887;80;21035;-54
2022/06/10 01:15:51;;;;;;;12.60;7.78;;;;;;;13.24;81.32;94242.88;1788990;80;21043;-54
2022/06/10 01:19:00;;;;;;;10.20;7.28;;;;;;;13.22;81.42;94246.11;1762348;80;20991;-54
2022/06/10 01:22:24;;;;;;;11.08;7.58;;;;;;;13.21;81.44;94249.33;1789360;80;21050;-54
2022/06/10 01:25:26;;;;;;;12.20;8.23;;;;;;;13.15;81.49;94254.00;1789148;80;21211;-54
2022/06/10 01:28:18;;;;;;;10.55;7.80;;;;;;;13.11;81.18;94253.44;1788603;80;21519;-54
2022/06/10 01:31:16;;;;;;;10.88;8.75;;;;;;;13.09;81.54;94253.16;1789340;80;20964;-54
2022/06/10 01:34:11;;;;;;;14.70;9.48;;;;;;;13.10;81.70;94250.53;1789040;80;21471;-56
2022/06/10 01:36:52;;;;;;;11.90;8.23;;;;;;;13.07;81.87;94255.63;1788966;78;21054;-55
2022/06/10 01:39:28;;;;;;;14.63;8.30;;;;;;;13.10;81.59;94249.16;1789052;80;21090;-54
2022/06/10 01:42:20;;;;;;;12.07;8.35;;;;;;;13.09;81.25;94250.39;1789271;80;20964;-54
2022/06/10 01:45:25;;;;;;;12.20;7.95;;;;;;;13.06;81.46;94251.34;1789172;80;26332;-54
2022/06/10 01:48:07;;;;;;;12.55;8.18;;;;;;;13.02;81.47;94257.64;1789373;80;20984;-54
2022/06/10 01:51:04;;;;;;;17.02;8.23;;;;;;;12.95;81.41;94258.81;1789039;80;21432;-55
2022/06/10 01:53:39;;;;;;;12.47;8.28;;;;;;;12.94;81.20;94259.27;1738799;82;21153;-53
2022/06/10 01:56:34;;;;;;;13.93;8.33;;;;;;;12.91;81.24;94256.80;1739595;82;20974;-54
2022/06/10 01:59:12;;;;;;;12.40;8.43;;;;;;;12.87;81.50;94250.70;1772098;80;21063;-54
2022/06/10 02:01:43;;;;;;;10.32;8.25;;;;;;;12.85;81.74;94262.06;1789206;80;20996;-55
2022/06/10 02:04:16;;;;;;;11.45;8.53;;;;;;;12.81;81.77;94260.11;1789377;80;21031;-54
2022/06/10 02:06:52;;;;;;;18.50;8.58;;;;;;;12.79;81.67;94266.12;1789106;80;21149;-54
2022/06/10 02:09:30;;;;;;;12.47;8.00;;;;;;;12.74;81.45;94260.48;1788481;80;20995;-55
2022/06/10 02:12:02;;;;;;;13.58;7.70;;;;;;;12.73;81.74;94261.72;1789180;80;21038;-53
2022/06/10 02:14:38;;;;;;;12.70;7.47;;;;;;;12.73;81.95;94263.10;1789269;80;21003;-54
2022/06/10 02:17:09;;;;;;;15.50;8.10;;;;;;;12.73;81.85;94271.38;1788671;78;20956;-54
2022/06/10 02:19:45;;;;;;;10.38;7.90;;;;;;;12.74;81.68;94277.80;1764738;80;21416;-55
2022/06/10 02:22:20;;;;;;;11.33;8.90;;;;;;;12.72;81.92;94283.66;1788959;80;20971;-53
2022/06/10 02:25:00;;;;;;;9.28;8.23;;;;;;;12.68;82.08;94283.83;1764907;80;21487;-53
2022/06/10 02:27:34;;;;;;;14.78;8.45;;;;;;;12.68;81.84;94287.22;1787902;79;21422;-53
2022/06/10 02:30:13;;;;;;;14.15;8.43;;;;;;;12.69;81.86;94290.88;1765097;80;20995;-54
2022/06/10 02:32:41;;;;;;;12.68;9.03;;;;;;;12.64;81.89;94296.27;1789108;80;21810;-54
2022/06/10 02:35:10;;;;;;;26.37;9.50;;;;;;;12.56;82.46;94293.10;1788900;80;20991;-54
2022/06/10 02:38:09;;;;;;;23.45;9.65;;;;;;;12.54;82.55;94290.69;1789014;80;21054;-54
2022/06/10 02:40:40;;;;;;;29.55;8.50;;;;;;;12.49;82.81;94291.31;1788706;80;20968;-54
2022/06/10 02:43:46;;;;;;;13.90;8.00;;;;;;;12.50;83.03;94291.48;1765804;80;20952;-54
2022/06/10 02:46:24;;;;;;;20.48;8.15;;;;;;;12.53;83.20;94291.14;1788370;80;21127;-54
2022/06/10 02:49:15;;;;;;;16.45;8.15;;;;;;;12.60;83.11;94292.33;1777510;80;20920;-54
2022/06/10 02:51:42;;;;;;;23.75;9.35;;;;;;;12.62;82.88;94298.14;1776032;80;20964;-54
2022/06/10 02:54:15;;;;;;;15.70;7.75;;;;;;;12.58;82.88;94302.30;1788987;79;21031;-54
2022/06/10 02:56:44;;;;;;;21.23;8.88;;;;;;;12.59;82.58;94301.06;1789439;79;21428;-54
2022/06/10 03:02:23;;;;;;;17.10;8.78;;;;;;;12.60;82.69;94303.38;1777913;80;20992;-54
2022/06/10 03:05:19;;;;;;;17.02;9.03;;;;;;;12.66;82.40;94317.26;1790676;77;21023;-54
2022/06/10 03:08:16;;;;;;;11.05;7.62;;;;;;;12.66;82.37;94311.73;1794935;79;21110;-54
2022/06/10 03:11:18;;;;;;;14.13;8.10;;;;;;;12.63;82.05;94323.13;1763126;81;20941;-53
2022/06/10 03:13:56;;;;;;;9.05;6.65;;;;;;;12.62;82.19;94322.20;1766586;81;21928;-54
2022/06/10 03:16:40;;;;;;;9.65;7.00;;;;;;;12.67;82.10;94318.78;1796970;79;20948;-54
2022/06/10 03:19:19;;;;;;;11.78;7.85;;;;;;;12.70;81.84;94319.25;1797087;79;21075;-54
2022/06/10 03:22:20;;;;;;;11.00;7.28;;;;;;;12.72;81.73;94325.05;1797183;79;21014;-54
2022/06/10 03:24:59;;;;;;;16.02;8.33;;;;;;;12.76;81.76;94314.59;1791782;79;21471;-55
2022/06/10 03:27:53;;;;;;;17.80;8.55;;;;;;;12.81;81.65;94324.98;1797564;78;21753;-55
2022/06/10 03:30:25;;;;;;;21.42;7.50;;;;;;;12.82;81.51;94323.74;1796985;79;20991;-54
2022/06/10 03:33:10;;;;;;;22.32;9.30;;;;;;;12.84;81.49;94326.80;1797601;79;20959;-54
2022/06/10 03:35:45;;;;;;;13.72;8.43;;;;;;;12.83;81.51;94326.65;1797590;79;21050;-55
2022/06/10 03:38:12;;;;;;;15.83;8.55;;;;;;;12.83;81.69;94328.80;1797649;79;21408;-56
2022/06/10 03:40:41;;;;;;;17.05;8.05;;;;;;;12.83;81.86;94335.70;1797031;79;21119;-55
2022/06/10 03:43:11;;;;;;;12.10;8.15;;;;;;;12.85;81.74;94333.23;1797309;79;21491;-55
2022/06/10 03:45:49;;;;;;;11.03;7.70;;;;;;;12.90;81.68;94331.20;1797217;78;21483;-55
2022/06/10 03:48:20;;;;;;;24.55;8.48;;;;;;;12.96;81.60;94331.34;1783590;79;21039;-55
2022/06/10 03:50:48;;;;;;;15.55;8.53;;;;;;;13.01;81.49;94332.06;1797054;79;21066;-56
2022/06/10 03:53:18;;;;;;;19.25;8.90;;;;;;;13.05;81.47;94332.67;1783386;79;21123;-55
2022/06/10 03:55:45;;;;;;;9.45;7.87;;;;;;;13.08;81.58;94323.43;1796958;79;21081;-55
2022/06/10 03:58:14;;;;;;;11.43;8.10;;;;;;;13.17;81.33;94326.10;1797403;79;20983;-54
2022/06/10 04:00:42;;;;;;;16.57;8.43;;;;;;;13.20;81.12;94327.91;1783569;79;21008;-55
2022/06/10 04:03:10;;;;;;;20.30;8.68;;;;;;;13.24;81.11;94324.38;1797004;78;21472;-55
2022/06/10 04:05:40;;;;;;;28.60;9.45;;;;;;;13.33;81.09;94333.34;1796982;79;21085;-54
2022/06/10 04:08:09;;;;;;;8.85;7.83;;;;;;;13.42;80.89;94332.48;1796958;78;21013;-55
2022/06/10 04:10:39;;;;;;;13.30;8.33;;;;;;;13.50;80.98;94333.62;1797167;78;21035;-54
2022/06/10 04:13:08;;;;;;;12.95;8.28;;;;;;;13.62;80.96;94343.66;1797246;79;20940;-55
2022/06/10 04:15:36;;;;;;;11.55;7.75;;;;;;;13.74;80.59;94338.44;1797047;79;20976;-55
2022/06/10 04:18:05;;;;;;;10.30;7.72;;;;;;;13.82;80.51;94341.73;1783613;79;21264;-55
2022/06/10 04:20:36;;;;;;;10.90;7.30;;;;;;;13.90;80.47;94334.59;1797401;79;20941;-55
2022/06/10 04:23:05;;;;;;;11.38;7.85;;;;;;;14.03;80.38;94335.67;1797165;79;20943;-53
2022/06/10 04:25:34;;;;;;;10.35;7.67;;;;;;;14.12;79.82;94342.47;1797456;79;21408;-56
2022/06/10 04:28:02;;;;;;;12.53;7.70;;;;;;;14.24;79.43;94344.98;1758547;79;21039;-56
2022/06/10 04:30:42;;;;;;;9.03;7.03;;;;;;;14.37;78.77;94341.25;1797414;78;21078;-55
2022/06/10 04:33:11;;;;;;;8.00;6.80;;;;;;;14.45;78.24;94345.16;1797054;79;21039;-54
2022/06/10 04:35:39;;;;;;;11.80;7.33;;;;;;;14.55;77.68;94348.72;1797758;78;21066;-53
2022/06/10 04:38:09;;;;;;;14.40;7.33;;;;;;;14.66;77.45;94352.26;1797112;79;21522;-54
2022/06/10 04:40:37;;;;;;;13.50;8.45;;;;;;;14.70;77.39;94354.97;1797307;79;20936;-55
2022/06/10 04:43:07;;;;;;;13.55;7.65;;;;;;;14.75;77.39;94353.50;1796992;78;21131;-55
2022/06/10 04:45:44;;;;;;;17.60;7.72;;;;;;;14.83;76.87;94357.41;1796861;78;20944;-55
2022/06/10 04:48:13;;;;;;;13.95;6.72;;;;;;;14.86;76.60;94351.66;1797070;79;21112;-55
2022/06/10 04:50:43;;;;;;;12.93;7.62;;;;;;;14.96;76.13;94354.42;1783973;79;21008;-55
2022/06/10 04:53:10;;;;;;;12.10;6.45;;;;;;;15.05;75.61;94352.92;1797132;79;21000;-54
2022/06/10 04:55:39;;;;;;;59.35;10.23;;;;;;;15.16;75.52;94350.91;1797419;79;21123;-54
2022/06/10 04:58:07;;;;;;;11.83;7.05;;;;;;;15.23;75.47;94352.63;1794093;78;21104;-55
2022/06/10 05:00:39;;;;;;;15.58;7.17;;;;;;;15.33;74.92;94350.50;1766333;81;20988;-54
2022/06/10 05:03:07;;;;;;;16.97;6.87;;;;;;;15.47;74.31;94349.02;1766444;81;20969;-54
2022/06/10 05:05:35;;;;;;;11.22;7.35;;;;;;;15.62;74.02;94353.84;1763749;79;20945;-55
2022/06/10 05:08:05;;;;;;;15.15;7.50;;;;;;;15.72;73.77;94351.03;1755304;81;21152;-54
2022/06/10 05:10:33;;;;;;;10.23;6.42;;;;;;;15.81;73.43;94348.11;1755510;80;20989;-55
2022/06/10 05:13:02;;;;;;;12.82;7.58;;;;;;;15.96;72.80;94359.08;1755630;81;21505;-54
2022/06/10 05:15:31;;;;;;;12.65;8.03;;;;;;;16.05;72.17;94356.13;1755262;81;20989;-55
2022/06/10 05:17:59;;;;;;;13.50;9.18;;;;;;;16.14;72.41;94359.52;1730202;81;21005;-55
2022/06/10 05:20:36;;;;;;;16.60;9.38;;;;;;;16.22;72.20;94357.03;1694327;81;21141;-56
2022/06/10 05:23:05;;;;;;;12.35;7.70;;;;;;;16.31;72.29;94354.83;1755074;80;21012;-55
2022/06/10 05:25:34;;;;;;;12.82;8.30;;;;;;;16.39;71.80;94359.47;1755582;81;21129;-57
2022/06/10 05:28:03;;;;;;;11.88;8.03;;;;;;;16.50;71.51;94356.02;1755361;81;21490;-55
2022/06/10 05:30:33;;;;;;;13.30;8.30;;;;;;;16.61;70.83;94356.88;1762356;80;20998;-57
2022/06/10 05:33:01;;;;;;;11.00;7.53;;;;;;;16.69;70.46;94358.56;1744007;81;21242;-56
2022/06/10 05:35:31;;;;;;;14.58;7.12;;;;;;;16.79;69.86;94344.59;1795526;79;21494;-56
2022/06/10 05:37:59;;;;;;;17.12;7.78;;;;;;;16.93;69.05;94353.40;1774548;80;21008;-55
2022/06/10 05:40:28;;;;;;;17.12;8.38;;;;;;;16.99;68.39;94357.73;1825629;78;21433;-57
2022/06/10 05:42:58;;;;;;;12.28;7.62;;;;;;;17.00;67.93;94358.47;1828859;78;20898;-54
2022/06/10 05:45:26;;;;;;;15.80;7.58;;;;;;;17.06;67.51;94363.45;1820249;78;21134;-55
2022/06/10 05:47:57;;;;;;;12.43;8.70;;;;;;;17.15;67.40;94366.78;1826077;78;20930;-55
2022/06/10 05:50:38;;;;;;;24.18;8.53;;;;;;;17.29;67.22;94366.46;1820914;78;20994;-55
2022/06/10 05:53:10;;;;;;;12.37;7.87;;;;;;;17.44;67.25;94364.28;1818515;77;21025;-58
2022/06/10 05:55:40;;;;;;;11.48;8.08;;;;;;;17.68;66.63;94365.99;1767159;80;21496;-55
2022/06/10 05:58:09;;;;;;;13.32;6.92;;;;;;;17.83;65.60;94365.15;1829039;77;21690;-55
2022/06/10 06:00:37;;;;;;;23.87;7.62;;;;;;;17.89;65.11;94372.25;1792176;77;21678;-58
2022/06/10 06:03:07;;;;;;;11.40;6.97;;;;;;;17.90;64.87;94366.04;1820153;77;21453;-57
2022/06/10 06:05:42;;;;;;;10.80;7.00;;;;;;;17.89;64.75;94369.47;1813795;78;21115;-56
2022/06/10 06:08:09;;;;;;;27.32;7.65;;;;;;;17.90;64.92;94371.61;1759779;77;21062;-59
2022/06/10 06:10:40;;;;;;;21.77;8.63;;;;;;;17.89;64.88;94367.30;1774238;78;21449;-60
2022/06/10 06:13:09;;;;;;;18.10;8.03;;;;;;;17.90;65.14;94368.82;1800523;77;21078;-58
2022/06/10 06:15:41;;;;;;;24.57;9.00;;;;;;;17.94;65.67;94370.72;1783672;77;21059;-56
2022/06/10 06:18:10;;;;;;;14.07;6.50;;;;;;;18.05;65.65;94365.19;1746652;80;21066;-57
2022/06/10 06:20:39;;;;;;;10.85;6.95;;;;;;;18.18;64.98;94373.94;1809197;77;21168;-58
2022/06/10 06:23:06;;;;;;;20.30;7.25;;;;;;;18.34;64.32;94370.44;1813065;77;21119;-63
2022/06/10 06:25:35;;;;;;;13.20;5.92;;;;;;;18.54;64.09;94369.41;1810368;77;21079;-56
2022/06/10 06:28:04;;;;;;;19.10;7.97;;;;;;;18.74;63.16;94361.55;1799092;77;21528;-58
2022/06/10 06:30:34;;;;;;;23.40;7.65;;;;;;;18.92;62.39;94365.19;1794350;78;21576;-58
2022/06/10 06:33:05;;;;;;;19.95;6.42;;;;;;;19.09;61.99;94363.13;1801837;77;21073;-59
2022/06/10 06:35:34;;;;;;;21.10;7.83;;;;;;;19.28;61.16;94359.92;1788668;78;21719;-56
2022/06/10 06:38:03;;;;;;;17.40;6.55;;;;;;;19.41;60.25;94361.50;1749858;79;21555;-58
2022/06/10 06:40:31;;;;;;;7.72;5.83;;;;;;;19.51;60.26;94363.37;1734489;79;21088;-57
2022/06/10 06:43:00;;;;;;;11.40;6.83;;;;;;;19.62;59.34;94362.70;1780178;79;21075;-56
2022/06/10 06:45:29;;;;;;;13.30;6.45;;;;;;;19.80;58.44;94361.34;1731684;79;21579;-60
2022/06/10 06:47:57;;;;;;;20.75;6.65;;;;;;;19.98;58.40;94366.31;1715982;81;21204;-58
2022/06/10 06:50:29;;;;;;;15.68;6.05;;;;;;;20.16;57.78;94363.70;1730854;80;21546;-57
2022/06/10 06:52:56;;;;;;;11.15;6.47;;;;;;;20.28;57.04;94358.13;1715421;81;21012;-56
2022/06/10 06:55:24;;;;;;;12.25;7.00;;;;;;;20.39;57.01;94369.23;1730267;79;21087;-58
2022/06/10 06:57:53;;;;;;;17.25;6.58;;;;;;;20.47;57.10;94360.41;1738261;79;21062;-60
2022/06/10 07:00:21;;;;;;;14.35;6.25;;;;;;;20.62;56.96;94356.59;1754747;79;21596;-61
2022/06/10 07:02:49;;;;;;;15.53;6.35;;;;;;;20.76;56.16;94351.27;1766334;79;21102;-57
2022/06/10 07:05:17;;;;;;;11.97;6.28;;;;;;;20.86;56.08;94351.06;1753646;79;21036;-56
2022/06/10 07:07:49;;;;;;;13.83;6.20;;;;;;;20.98;55.92;94352.48;1762603;79;20997;-58
2022/06/10 07:10:21;;;;;;;13.65;6.50;;;;;;;21.13;55.57;94348.64;1761144;79;21490;-57
2022/06/10 07:12:48;;;;;;;9.93;5.95;;;;;;;21.30;55.13;94356.21;1736578;79;21199;-57
2022/06/10 07:15:16;;;;;;;19.73;6.20;;;;;;;21.42;54.44;94347.78;1730632;79;20920;-62
2022/06/10 07:17:46;;;;;;;16.90;10.23;;;;;;;21.59;54.06;94345.54;1794639;78;20984;-58
2022/06/10 07:20:30;;;;;;;16.32;7.28;;;;;;;21.74;54.42;94352.89;1818756;77;21021;-60
2022/06/10 07:23:00;;;;;;;10.48;6.20;;;;;;;21.86;54.32;94353.62;1806815;77;21877;-58
2022/06/10 07:25:32;;;;;;;12.15;6.33;;;;;;;22.03;54.18;94359.01;1801381;77;21084;-59
2022/06/10 07:28:07;;;;;;;11.00;5.92;;;;;;;22.22;53.54;94355.66;1809951;77;22296;-57
2022/06/10 07:30:39;;;;;;;14.33;8.15;;;;;;;22.48;52.56;94357.19;1801791;77;21039;-59
2022/06/10 07:33:07;;;;;;;14.85;7.22;;;;;;;22.72;52.75;94349.29;1793004;78;22168;-59
2022/06/10 07:35:36;;;;;;;14.73;6.72;;;;;;;22.97;52.33;94352.80;1808796;77;21059;-64
2022/06/10 07:38:06;;;;;;;18.27;8.10;;;;;;;23.17;51.52;94350.81;1808574;77;21298;-58
2022/06/10 07:43:29;;;;;;;11.97;5.92;;;;;;;23.45;51.23;94347.47;1806566;77;21480;-55
2022/06/10 07:45:57;;;;;;;11.88;5.67;;;;;;;23.59;51.20;94341.97;1765770;79;21053;-60
2022/06/10 07:48:27;;;;;;;18.92;5.85;;;;;;;23.79;51.75;94334.27;1783993;77;21022;-58
2022/06/10 07:50:55;;;;;;;8.50;5.58;;;;;;;24.04;50.64;94330.68;1823593;77;21149;-59
2022/06/10 07:53:25;;;;;;;9.55;5.95;;;;;;;24.27;48.76;94331.69;1727483;81;21059;-57
2022/06/10 07:55:54;;;;;;;8.88;5.10;;;;;;;24.47;47.78;94342.20;1725455;79;21053;-58
2022/06/10 07:58:24;;;;;;;7.72;5.50;;;;;;;24.67;48.24;94326.02;1728552;81;21055;-57
2022/06/10 08:00:51;;;;;;;9.13;5.15;;;;;;;24.88;47.70;94342.24;1773073;79;21044;-59
2022/06/10 08:03:19;;;;;;;11.53;5.83;;;;;;;25.03;46.23;94340.97;1749816;81;21255;-61
2022/06/10 08:05:48;;;;;;;11.08;5.42;;;;;;;25.11;45.85;94343.20;1747634;80;21029;-57
2022/06/10 08:08:17;;;;;;;12.30;5.15;;;;;;;25.20;45.62;94332.87;1706818;81;21044;-57
2022/06/10 08:10:45;;;;;;;16.60;5.55;;;;;;;25.30;45.00;94337.45;1760603;80;21048;-58
2022/06/10 08:13:13;;;;;;;10.90;5.62;;;;;;;25.37;46.22;94340.22;1765244;79;21044;-58
2022/06/10 08:15:43;;;;;;;13.13;6.03;;;;;;;25.41;45.26;94347.66;1741105;80;21086;-60
2022/06/10 08:18:15;;;;;;;14.20;6.03;;;;;;;25.42;44.99;94342.12;1784097;79;21107;-59
2022/06/10 08:23:32;;;;;;;8.83;4.92;;;;;;;25.57;45.94;94353.50;1726067;79;21557;-58
2022/06/10 08:26:06;;;;;;;8.10;5.33;;;;;;;25.76;46.30;94349.75;1763455;79;21079;-57
2022/06/10 08:28:35;;;;;;;;;;;;;;;25.97;45.66;94356.19;1766998;79;21300;-59
2022/06/10 08:31:03;;;;;;;7.53;6.42;;;;;;;26.21;45.28;94341.64;1778673;79;20161;-60
2022/06/10 08:44:12;;;;;;;8.65;4.92;;;;;;;26.55;41.45;94344.97;1758899;79;20973;-57
2022/06/10 08:47:05;;;;;;;10.43;5.22;;;;;;;26.41;43.00;94338.58;1751878;79;21020;-57
2022/06/10 08:50:04;;;;;;;9.60;5.17;;;;;;;26.38;42.18;94349.59;1775065;79;21080;-57
2022/06/10 08:53:03;;;;;;;8.98;5.15;;;;;;;26.38;42.18;94349.59;1781779;79;21057;-59
2022/06/10 08:56:03;;;;;;;11.50;5.33;;;;;;;26.39;42.23;94347.63;1754814;79;21064;-57
2022/06/10 08:59:17;;;;;;;5.10;4.05;;;;;;;26.41;41.85;94350.64;1752079;79;21260;-56
2022/06/10 09:02:05;;;;;;;8.75;4.62;;;;;;;26.36;41.63;94353.63;1761930;79;21136;-60
2022/06/10 09:04:52;;;;;;;7.85;4.62;;;;;;;26.40;41.39;94345.54;1761821;79;21032;-60
2022/06/10 09:07:38;;;;;;;8.85;4.75;;;;;;;26.40;41.86;94359.01;1737988;79;21134;-64
2022/06/10 09:10:08;;;;;;;9.23;5.25;;;;;;;26.45;41.72;94353.84;1770926;79;21044;-57
2022/06/10 09:13:13;;;;;;;6.87;4.93;;;;;;;26.61;41.83;94359.66;1757554;79;21330;-63
2022/06/10 09:15:52;;;;;;;8.63;4.62;;;;;;;26.77;41.51;94364.02;1756806;79;20993;-58
2022/06/10 09:18:28;;;;;;;9.78;5.55;;;;;;;26.87;40.69;94372.02;1722530;79;21060;-60
2022/06/10 09:21:11;;;;;;;8.95;5.05;;;;;;;26.95;40.37;94355.09;1770937;79;21038;-58
2022/06/10 09:23:43;;;;;;;8.40;5.53;;;;;;;27.13;41.06;94363.23;1763558;79;21575;-61
2022/06/10 09:26:20;;;;;;;9.40;5.35;;;;;;;27.44;41.04;94367.55;1799605;78;22575;-58
2022/06/10 09:28:54;;;;;;;8.25;5.22;;;;;;;27.62;41.10;94366.39;1806921;78;20999;-58
2022/06/10 09:31:44;;;;;;;7.03;4.67;;;;;;;27.89;40.81;94371.08;1802371;78;21060;-58
2022/06/10 09:34:25;;;;;;;7.62;4.62;;;;;;;28.11;39.93;94366.69;1808977;77;21745;-56
2022/06/10 09:37:15;;;;;;;12.93;4.67;;;;;;;28.23;40.12;94370.63;1809956;77;21083;-58
2022/06/10 09:43:10;;;;;;;9.83;4.80;;;;;;;28.24;38.16;94353.73;1826147;77;21355;-56
2022/06/10 09:46:20;;;;;;;8.80;5.27;;;;;;;28.15;38.59;94350.84;1780879;79;21071;-59
2022/06/10 09:49:12;;;;;;;9.13;4.92;;;;;;;28.14;39.52;94352.81;1804159;77;21036;-63
2022/06/10 09:52:10;;;;;;;6.05;4.58;;;;;;;28.12;38.85;94359.70;1815428;77;21044;-64
2022/06/10 09:55:03;;;;;;;8.18;5.28;;;;;;;27.99;39.14;94356.45;1806969;78;21220;-63
2022/06/10 09:57:57;;;;;;;11.08;4.62;;;;;;;27.84;39.45;94364.23;1734920;79;20965;-61
2022/06/10 10:00:55;;;;;;;10.28;4.67;;;;;;;27.65;39.43;94385.08;1742871;80;21042;-61
2022/06/10 10:03:51;;;;;;;8.50;6.03;;;;;;;27.47;40.12;94376.98;1748452;81;21051;-63
2022/06/10 10:06:37;;;;;;;6.67;4.62;;;;;;;27.22;40.26;94377.47;1689783;79;21115;-64
2022/06/10 10:09:28;;;;;;;6.58;4.62;;;;;;;27.15;41.08;94384.61;1767108;79;21255;-61
2022/06/10 10:12:10;;;;;;;7.67;5.05;;;;;;;27.30;41.11;94380.38;1762220;79;20977;-58
2022/06/10 10:14:57;;;;;;;7.83;5.37;;;;;;;27.57;40.52;94376.51;1772384;81;22196;-55
2022/06/10 10:17:42;;;;;;;8.40;5.42;;;;;;;27.75;40.82;94390.25;1772365;81;22153;-56
2022/06/10 10:21:02;;;;;;;10.75;4.80;;;;;;;27.87;39.67;94377.23;1773218;80;21024;-58
2022/06/10 10:23:46;;;;;;;9.13;5.30;;;;;;;27.93;39.08;94389.09;1788157;79;21090;-58
2022/06/10 10:26:36;;;;;;;15.72;6.20;;;;;;;27.81;39.69;94388.66;1722631;81;21129;-56
2022/06/10 10:29:23;;;;;;;8.53;5.05;;;;;;;27.88;39.69;94380.80;1815318;78;21038;-61
2022/06/10 10:32:11;;;;;;;7.28;5.20;;;;;;;27.89;39.89;94382.39;1814028;79;20982;-56
2022/06/10 10:34:41;;;;;;;5.80;4.92;;;;;;;27.96;40.38;94381.64;1747257;81;21143;-58
2022/06/10 10:37:28;;;;;;;8.35;5.40;;;;;;;28.08;40.56;94379.16;1744589;80;21448;-57
2022/06/10 10:40:07;;;;;;;8.68;4.37;;;;;;;28.15;40.00;94386.85;1753914;79;21551;-57
2022/06/10 10:42:37;;;;;;;11.97;5.58;;;;;;;28.15;39.35;94388.27;1690666;83;21050;-56
2022/06/10 10:45:26;;;;;;;10.70;5.30;;;;;;;28.14;39.41;94383.94;1734088;81;21540;-57
2022/06/10 10:48:01;;;;;;;6.62;5.42;;;;;;;28.07;40.15;94391.80;1766520;80;21001;-61
2022/06/10 10:50:35;;;;;;;7.60;5.40;;;;;;;27.96;39.52;94381.64;1764959;80;21075;-55
2022/06/10 10:53:27;;;;;;;7.47;4.78;;;;;;;27.80;40.11;94392.13;1760268;80;21658;-59
2022/06/10 10:56:01;;;;;;;9.30;5.67;;;;;;;27.54;40.84;94402.41;1722795;83;21514;-55
2022/06/10 10:58:37;;;;;;;7.37;5.03;;;;;;;27.39;40.78;94396.02;1723047;81;20978;-58
2022/06/10 11:01:43;;;;;;;10.10;6.00;;;;;;;27.35;41.67;94396.39;1764791;80;21565;-58
2022/06/10 11:03:55;;;;;;;7.95;5.80;;;;;;;27.34;41.84;94394.88;1724433;81;21149;-55
2022/06/10 11:06:30;;;;;;;12.65;5.92;;;;;;;27.47;42.24;94398.94;1741532;80;21105;-56
2022/06/10 11:09:06;;;;;;;8.65;5.05;;;;;;;27.63;42.37;94394.78;1744130;81;21112;-56
2022/06/10 11:11:43;;;;;;;9.75;5.15;;;;;;;27.91;40.58;94386.76;1789115;78;20990;-58
2022/06/10 11:14:31;;;;;;;8.43;4.60;;;;;;;28.29;39.45;94386.72;1786550;78;21062;-57
2022/06/10 11:17:16;;;;;;;7.03;5.35;;;;;;;29.00;40.49;94386.04;1803824;77;21079;-59
2022/06/10 11:19:46;;;;;;;;;;;;;;;29.29;37.93;94385.75;1799065;79;21013;-55
2022/06/10 11:22:28;;;;;;;9.45;5.42;;;;;;;29.18;37.64;94388.38;1755483;80;20460;-56
2022/06/10 11:25:15;;;;;;;20.35;6.87;;;;;;;29.04;38.97;94380.06;1771309;78;21480;-57
2022/06/10 11:27:59;;;;;;;11.55;6.00;;;;;;;28.70;41.29;94389.00;1767516;78;21036;-55
2022/06/10 11:30:42;;;;;;;17.48;6.67;;;;;;;27.98;42.20;94381.82;1806277;78;21401;-57
2022/06/10 11:33:35;;;;;;;11.03;5.83;;;;;;;27.25;46.73;94377.74;1791290;78;20984;-62
2022/06/10 11:36:11;;;;;;;9.18;5.62;;;;;;;26.61;49.56;94378.00;1765423;78;21152;-57
2022/06/10 11:39:18;;;;;;;13.05;6.78;;;;;;;26.02;49.14;94382.08;1773823;79;21138;-60
2022/06/10 11:42:19;;;;;;;9.33;6.40;;;;;;;25.37;49.38;94381.83;1797607;78;21025;-60
2022/06/10 11:44:56;;;;;;;9.80;6.00;;;;;;;24.84;53.77;94388.28;1783713;79;21263;-59
2022/06/10 11:47:38;;;;;;;14.20;7.85;;;;;;;24.52;54.73;94388.52;1812036;77;21037;-56
2022/06/10 11:50:19;;;;;;;16.32;7.05;;;;;;;24.22;56.92;94381.11;1770463;79;21506;-55
2022/06/10 11:53:19;;;;;;;12.93;7.58;;;;;;;23.98;56.20;94379.21;1777821;78;21066;-57
2022/06/10 11:59:42;;;;;;;10.82;6.28;;;;;;;23.86;57.46;94372.97;1731763;80;21544;-57
2022/06/10 12:01:24;;;;;;;19.98;8.85;;;;;;;23.69;58.89;94387.34;1769577;80;21466;-56
2022/06/10 12:04:17;;;;;;;14.07;7.33;;;;;;;23.50;61.95;94374.05;1778621;78;21047;-57
2022/06/10 12:07:05;;;;;;;10.45;6.00;;;;;;;23.42;62.93;94378.05;1723801;79;21044;-56
2022/06/10 12:09:44;;;;;;;11.45;6.35;;;;;;;23.63;64.36;94384.52;1722061;81;21044;-54
2022/06/10 12:12:31;;;;;;;9.60;6.03;;;;;;;23.58;63.65;94367.87;1756795;81;21076;-56
2022/06/10 12:15:23;;;;;;;15.35;6.80;;;;;;;23.77;63.33;94369.92;1751979;81;21013;-55
2022/06/10 12:17:59;;;;;;;13.72;6.60;;;;;;;23.86;61.87;94387.79;1712903;80;21111;-54
2022/06/10 12:20:51;;;;;;;15.93;8.63;;;;;;;23.79;62.80;94394.68;1751011;79;21083;-59
2022/06/10 12:23:43;;;;;;;13.50;8.05;;;;;;;23.64;63.61;94386.80;1735944;81;21047;-56
2022/06/10 12:26:46;;;;;;;12.73;7.92;;;;;;;23.49;64.76;94375.98;1748541;80;21225;-55
2022/06/10 12:29:32;;;;;;;9.15;6.62;;;;;;;23.37;65.64;94388.08;1750416;79;21079;-57
2022/06/10 12:32:36;;;;;;;12.73;7.28;;;;;;;23.22;66.70;94386.44;1762803;79;21124;-56
2022/06/10 12:35:28;;;;;;;12.13;7.37;;;;;;;23.13;66.63;94377.05;1763512;79;21005;-54
2022/06/10 12:38:21;;;;;;;9.55;7.67;;;;;;;22.95;67.97;94377.84;1666587;84;21091;-57
2022/06/10 12:41:03;;;;;;;13.28;7.62;;;;;;;22.80;70.10;94389.47;1742588;80;21014;-55